Time;durP1;ratioP1;P1;durP2;ratioP2;P2;SDS_P1;SDS_P2;PMS_P1;PMS_P2;Temp;Humidity;BMP_temperature;BMP_pressure;BME280_temperature;BME280_humidity;BME280_pressure;Samples;Min_cycle;Max_cycle;Signal;HPM_P1;HPM_P2
2021/12/09 00:00:12;;;;;;;5.60;2.65;;;4.40;99.90;;;;;;4888562;29;20041;-78
2021/12/09 00:02:38;;;;;;;6.50;2.22;;;4.50;99.90;;;;;;4890024;29;20049;-78
2021/12/09 00:05:05;;;;;;;8.55;2.72;;;4.50;99.90;;;;;;4890532;29;20033;-78
2021/12/09 00:07:31;;;;;;;7.22;2.78;;;4.50;99.90;;;;;;4890021;29;20037;-78
2021/12/09 00:09:57;;;;;;;6.15;2.67;;;4.50;99.90;;;;;;4889719;29;20080;-76
2021/12/09 00:12:24;;;;;;;6.43;2.90;;;4.50;99.90;;;;;;4902394;29;20232;-77
2021/12/09 00:14:50;;;;;;;9.95;2.50;;;4.40;99.90;;;;;;4903395;29;20044;-77
2021/12/09 00:17:16;;;;;;;6.70;2.25;;;4.30;99.90;;;;;;4895282;29;20116;-78
2021/12/09 00:19:42;;;;;;;7.95;2.55;;;4.30;99.90;;;;;;4889388;29;20052;-77
2021/12/09 00:22:11;;;;;;;5.65;2.10;;;4.20;99.90;;;;;;4889909;29;20108;-78
2021/12/09 00:24:37;;;;;;;9.38;2.20;;;4.20;99.90;;;;;;4890105;29;20067;-79
2021/12/09 00:27:03;;;;;;;5.85;2.20;;;4.10;99.90;;;;;;4889444;29;20037;-79
2021/12/09 00:29:29;;;;;;;6.57;2.35;;;4.00;99.90;;;;;;4889316;29;20100;-78
2021/12/09 00:31:55;;;;;;;10.52;2.38;;;3.90;99.90;;;;;;4889620;29;20048;-77
2021/12/09 00:34:29;;;;;;;7.63;2.03;;;3.90;99.90;;;;;;4901412;29;20028;-77
2021/12/09 00:37:00;;;;;;;8.02;1.98;;;3.80;99.90;;;;;;4907436;29;20083;-78
2021/12/09 00:39:26;;;;;;;6.60;2.00;;;3.80;99.90;;;;;;4908456;29;20149;-78
2021/12/09 00:41:52;;;;;;;5.60;1.90;;;3.70;99.90;;;;;;4908459;29;20056;-78
2021/12/09 00:44:18;;;;;;;8.60;2.05;;;3.70;99.90;;;;;;4907728;29;20033;-77
2021/12/09 00:46:44;;;;;;;8.25;1.75;;;3.60;99.90;;;;;;4895145;29;20044;-77
2021/12/09 00:49:10;;;;;;;8.68;1.80;;;3.60;99.90;;;;;;4882406;29;20342;-78
2021/12/09 00:51:36;;;;;;;6.85;1.77;;;3.60;99.90;;;;;;4889447;29;20032;-77
2021/12/09 00:54:03;;;;;;;6.40;2.00;;;3.60;99.90;;;;;;4887820;29;20053;-78
2021/12/09 00:56:28;;;;;;;7.80;2.35;;;3.70;99.90;;;;;;4904135;29;20072;-77
2021/12/09 00:58:55;;;;;;;7.55;1.90;;;3.70;99.90;;;;;;4889012;29;20033;-77
2021/12/09 01:01:55;;;;;;;7.50;1.73;;;3.70;99.90;;;;;;4884749;29;20269;-77
2021/12/09 01:04:21;;;;;;;9.55;2.10;;;3.80;99.90;;;;;;4888703;29;20299;-78
2021/12/09 01:06:49;;;;;;;6.90;2.50;;;3.80;99.90;;;;;;4887480;29;20040;-78
2021/12/09 01:09:15;;;;;;;7.70;2.20;;;3.80;99.90;;;;;;4889174;29;20041;-77
2021/12/09 01:11:41;;;;;;;11.40;3.20;;;3.80;99.90;;;;;;4888349;29;20044;-77
2021/12/09 01:14:07;;;;;;;9.13;3.33;;;3.80;99.90;;;;;;4903404;29;20116;-78
2021/12/09 01:16:33;;;;;;;9.90;2.22;;;3.80;99.90;;;;;;4884144;29;20243;-77
2021/12/09 01:18:58;;;;;;;8.05;1.85;;;3.80;99.90;;;;;;4887098;29;20064;-78
2021/12/09 01:21:24;;;;;;;7.05;1.75;;;3.80;99.90;;;;;;4889418;29;20130;-77
2021/12/09 01:23:50;;;;;;;7.47;2.00;;;3.70;99.90;;;;;;4888975;29;20092;-77
2021/12/09 01:26:16;;;;;;;7.70;1.58;;;3.80;99.90;;;;;;4887667;29;20021;-77
2021/12/09 01:28:50;;;;;;;5.97;1.60;;;3.80;99.90;;;;;;4888439;29;20025;-79
2021/12/09 01:31:26;;;;;;;5.97;1.65;;;3.70;99.90;;;;;;4886549;29;20048;-77
2021/12/09 01:33:53;;;;;;;5.35;2.05;;;3.70;99.90;;;;;;4892622;29;20037;-77
2021/12/09 01:36:20;;;;;;;6.60;1.63;;;3.70;99.90;;;;;;4888896;29;20096;-77
2021/12/09 01:38:47;;;;;;;4.25;1.58;;;3.70;99.90;;;;;;4887837;29;20450;-78
2021/12/09 01:41:12;;;;;;;5.65;1.50;;;3.70;99.90;;;;;;4888565;29;20266;-78
2021/12/09 01:43:38;;;;;;;8.38;2.30;;;3.70;99.90;;;;;;4889014;29;20025;-77
2021/12/09 01:46:11;;;;;;;7.05;2.00;;;3.80;99.90;;;;;;4886458;29;20052;-78
2021/12/09 01:48:38;;;;;;;6.88;1.83;;;3.80;99.90;;;;;;4887396;29;20044;-77
2021/12/09 01:51:04;;;;;;;4.15;1.60;;;3.70;99.90;;;;;;4888367;29;20017;-79
2021/12/09 01:53:30;;;;;;;7.93;2.38;;;3.70;99.90;;;;;;4883090;29;20605;-76
2021/12/09 01:56:01;;;;;;;6.85;1.50;;;3.70;99.90;;;;;;4888209;29;20248;-77
2021/12/09 01:58:27;;;;;;;6.75;1.50;;;3.70;99.90;;;;;;4887422;29;20033;-77
2021/12/09 02:00:54;;;;;;;4.43;1.88;;;3.70;99.90;;;;;;4879734;29;20045;-77
2021/12/09 02:03:20;;;;;;;11.55;2.10;;;3.70;99.90;;;;;;4876511;29;20029;-77
2021/12/09 02:05:47;;;;;;;7.97;1.90;;;3.70;99.90;;;;;;4906911;29;20052;-77
2021/12/09 02:08:14;;;;;;;7.25;1.92;;;3.70;99.90;;;;;;4906690;29;20100;-77
2021/12/09 02:10:41;;;;;;;6.40;2.10;;;3.70;99.90;;;;;;4907317;29;20056;-77
2021/12/09 02:13:07;;;;;;;5.07;1.90;;;3.70;99.90;;;;;;4905471;29;20043;-77
2021/12/09 02:15:34;;;;;;;8.07;2.00;;;3.80;99.90;;;;;;4906909;29;20041;-77
2021/12/09 02:18:03;;;;;;;8.45;2.25;;;3.80;99.90;;;;;;4905536;29;20033;-78
2021/12/09 02:20:32;;;;;;;6.47;2.30;;;3.80;99.90;;;;;;4905722;29;20108;-77
2021/12/09 02:22:58;;;;;;;8.07;2.30;;;3.80;99.90;;;;;;4906465;29;20071;-77
2021/12/09 02:25:24;;;;;;;6.80;2.42;;;3.80;99.90;;;;;;4907073;29;20076;-78
2021/12/09 02:27:50;;;;;;;8.88;3.17;;;3.80;99.90;;;;;;4907142;29;20227;-77
2021/12/09 02:30:16;;;;;;;6.85;3.17;;;3.80;99.90;;;;;;4907924;29;20047;-78
2021/12/09 02:32:43;;;;;;;7.05;2.75;;;3.90;99.90;;;;;;4911058;29;20044;-78
2021/12/09 02:35:10;;;;;;;6.78;3.47;;;3.90;99.90;;;;;;4895537;29;20057;-78
2021/12/09 02:37:37;;;;;;;9.48;3.50;;;3.90;99.90;;;;;;4891945;29;20021;-78
2021/12/09 02:40:06;;;;;;;6.95;3.10;;;3.90;99.90;;;;;;4905515;29;20041;-78
2021/12/09 02:42:32;;;;;;;7.78;3.50;;;3.90;99.90;;;;;;4890895;29;20032;-77
2021/12/09 02:44:58;;;;;;;9.20;3.30;;;4.00;99.90;;;;;;4891468;29;20044;-78
2021/12/09 02:47:25;;;;;;;11.60;3.63;;;3.90;99.90;;;;;;4892092;29;20088;-78
2021/12/09 02:49:51;;;;;;;13.60;4.03;;;4.00;99.90;;;;;;4891825;29;20284;-77
2021/12/09 02:52:17;;;;;;;8.50;4.22;;;4.00;99.90;;;;;;4905853;29;20101;-77
2021/12/09 02:54:43;;;;;;;9.52;4.00;;;4.00;99.90;;;;;;4906143;29;20246;-78
2021/12/09 02:57:09;;;;;;;11.23;3.83;;;4.00;99.90;;;;;;4890248;29;20296;-77
2021/12/09 02:59:35;;;;;;;12.73;4.35;;;4.10;99.90;;;;;;4890484;29;20029;-78
2021/12/09 03:02:04;;;;;;;10.25;4.30;;;4.00;99.90;;;;;;4890809;29;20327;-78
2021/12/09 03:04:51;;;;;;;10.82;4.30;;;4.00;99.90;;;;;;4897030;29;20033;-78
2021/12/09 03:07:31;;;;;;;12.82;4.18;;;4.10;99.90;;;;;;4909897;29;20390;-77
2021/12/09 03:10:02;;;;;;;10.80;4.18;;;4.10;99.90;;;;;;4881164;29;20061;-77
2021/12/09 03:12:31;;;;;;;8.15;3.75;;;4.10;99.90;;;;;;4891373;29;20041;-77
2021/12/09 03:14:58;;;;;;;13.05;3.78;;;4.10;99.90;;;;;;4891142;29;20064;-78
2021/12/09 03:17:23;;;;;;;10.45;3.45;;;4.10;99.90;;;;;;4890677;29;20033;-78
2021/12/09 03:19:50;;;;;;;9.60;4.15;;;4.20;99.90;;;;;;4891040;29;20049;-78
2021/12/09 03:22:17;;;;;;;11.73;3.72;;;4.20;99.90;;;;;;4891462;29;20033;-77
2021/12/09 03:24:43;;;;;;;10.05;3.60;;;4.20;99.90;;;;;;4905053;29;20029;-78
2021/12/09 03:27:10;;;;;;;13.52;4.53;;;4.30;99.90;;;;;;4900271;29;20043;-78
2021/12/09 03:29:38;;;;;;;11.75;4.10;;;4.30;99.90;;;;;;4895128;29;20028;-78
2021/12/09 03:32:08;;;;;;;12.93;4.32;;;4.30;99.90;;;;;;4890962;29;20037;-78
2021/12/09 03:34:36;;;;;;;7.55;3.78;;;4.20;99.90;;;;;;4880240;29;20037;-79
2021/12/09 03:37:06;;;;;;;13.27;3.90;;;4.20;99.90;;;;;;4889054;29;20032;-79
2021/12/09 03:39:35;;;;;;;15.02;4.72;;;4.20;99.90;;;;;;4888726;29;20111;-78
2021/12/09 03:42:02;;;;;;;9.73;3.58;;;4.10;99.90;;;;;;4889035;29;20025;-79
2021/12/09 03:44:28;;;;;;;13.50;4.60;;;4.10;99.90;;;;;;4891292;29;20052;-78
2021/12/09 03:46:57;;;;;;;10.95;3.90;;;4.20;99.90;;;;;;4890961;29;20025;-78
2021/12/09 03:49:24;;;;;;;12.32;3.83;;;4.20;99.90;;;;;;4890253;29;20052;-78
2021/12/09 03:51:51;;;;;;;10.52;4.20;;;4.20;99.90;;;;;;4890993;29;20052;-78
2021/12/09 03:54:17;;;;;;;8.98;4.25;;;4.20;99.90;;;;;;4889572;29;20319;-79
2021/12/09 03:56:43;;;;;;;9.35;3.95;;;4.20;99.90;;;;;;4889516;29;20087;-78
2021/12/09 03:59:10;;;;;;;8.90;4.15;;;4.20;99.90;;;;;;4885466;29;20079;-78
2021/12/09 04:01:38;;;;;;;6.50;4.05;;;4.20;99.90;;;;;;4890172;29;20044;-77
2021/12/09 04:04:05;;;;;;;11.80;3.87;;;4.10;99.90;;;;;;4881003;29;20059;-78
2021/12/09 04:06:32;;;;;;;8.57;3.90;;;4.10;99.90;;;;;;4909236;29;20477;-78
2021/12/09 04:08:58;;;;;;;13.70;4.35;;;4.20;99.90;;;;;;4892558;29;20247;-78
2021/12/09 04:11:24;;;;;;;12.30;4.40;;;4.10;99.90;;;;;;4908905;29;20153;-78
2021/12/09 04:13:50;;;;;;;13.38;3.80;;;4.10;99.90;;;;;;4907846;29;20091;-77
2021/12/09 04:16:16;;;;;;;12.15;4.10;;;4.10;99.90;;;;;;4902941;29;20043;-77
2021/12/09 04:18:44;;;;;;;11.10;4.10;;;4.10;99.90;;;;;;4889910;29;20049;-77
2021/12/09 04:21:10;;;;;;;9.83;3.87;;;4.10;99.90;;;;;;4904113;29;20052;-77
2021/12/09 04:23:37;;;;;;;9.30;3.97;;;4.10;99.90;;;;;;4889948;29;20461;-77
2021/12/09 04:26:03;;;;;;;11.38;4.50;;;4.10;99.90;;;;;;4900895;29;20256;-78
2021/12/09 04:28:29;;;;;;;10.20;3.80;;;4.00;99.90;;;;;;4888913;29;20056;-78
2021/12/09 04:30:55;;;;;;;9.57;4.28;;;3.90;99.90;;;;;;4890012;29;20040;-78
2021/12/09 04:33:21;;;;;;;9.95;4.03;;;3.90;99.90;;;;;;4904088;29;20040;-78
2021/12/09 04:35:47;;;;;;;8.95;3.97;;;3.70;99.90;;;;;;4901620;29;20037;-77
2021/12/09 04:38:13;;;;;;;12.95;4.63;;;3.70;99.90;;;;;;4922889;29;20052;-77
2021/12/09 04:40:38;;;;;;;8.00;3.70;;;3.70;99.90;;;;;;4908428;29;20047;-78
2021/12/09 04:43:04;;;;;;;11.57;4.28;;;3.80;99.90;;;;;;4904833;29;20072;-78
2021/12/09 04:45:33;;;;;;;10.30;3.42;;;3.80;99.90;;;;;;4904676;29;20029;-78
2021/12/09 04:47:59;;;;;;;10.73;3.70;;;3.80;99.90;;;;;;4890290;29;20040;-78
2021/12/09 04:50:25;;;;;;;8.85;3.75;;;3.80;99.90;;;;;;4888004;29;20224;-79
2021/12/09 04:53:06;;;;;;;9.65;3.63;;;3.90;99.90;;;;;;4889400;29;20028;-80
2021/12/09 04:55:33;;;;;;;13.95;3.47;;;3.90;99.90;;;;;;4888536;29;20085;-79
2021/12/09 04:58:00;;;;;;;9.95;3.80;;;3.90;99.90;;;;;;4888343;29;20312;-77
2021/12/09 05:00:29;;;;;;;9.68;3.60;;;4.00;99.90;;;;;;4889189;29;20056;-77
2021/12/09 05:05:27;;;;;;;9.73;4.18;;;4.00;99.90;;;;;;4913207;29;20347;-78
2021/12/09 05:07:53;;;;;;;8.80;3.17;;;4.10;99.90;;;;;;4908018;29;20391;-78
2021/12/09 05:10:18;;;;;;;10.63;2.90;;;4.10;99.90;;;;;;4908096;29;20032;-78
2021/12/09 05:12:44;;;;;;;7.47;2.85;;;4.20;99.90;;;;;;4907139;29;20048;-78
2021/12/09 05:15:10;;;;;;;8.52;2.95;;;4.20;99.90;;;;;;4906638;29;20040;-78
2021/12/09 05:17:36;;;;;;;11.77;3.45;;;4.20;99.90;;;;;;4907996;29;20031;-80
2021/12/09 05:20:04;;;;;;;10.35;2.83;;;4.10;99.90;;;;;;4901837;29;20052;-78
2021/12/09 05:22:31;;;;;;;12.15;3.03;;;4.10;99.90;;;;;;4888286;29;20056;-77
2021/12/09 05:24:57;;;;;;;8.30;2.78;;;4.10;99.90;;;;;;4885411;29;20119;-77
2021/12/09 05:27:23;;;;;;;6.95;2.25;;;4.00;99.90;;;;;;4888830;29;20025;-78
2021/12/09 05:30:03;;;;;;;12.40;3.00;;;4.00;99.90;;;;;;4888674;29;20040;-77
2021/12/09 05:32:29;;;;;;;9.63;3.30;;;3.90;99.90;;;;;;4884804;29;20041;-77
2021/12/09 05:34:55;;;;;;;9.00;2.58;;;4.00;99.90;;;;;;4892220;29;20100;-76
2021/12/09 05:37:24;;;;;;;7.65;2.47;;;4.10;99.90;;;;;;4918896;29;20044;-78
2021/12/09 05:39:53;;;;;;;11.02;2.67;;;4.10;99.90;;;;;;4889266;29;20037;-78
2021/12/09 05:42:20;;;;;;;;;;;4.20;99.90;;;;;;4888617;29;20029;-76
2021/12/09 05:44:47;;;;;;;7.32;2.40;;;4.10;99.90;;;;;;4903457;29;19919;-78
2021/12/09 05:47:13;;;;;;;12.38;3.13;;;4.20;99.90;;;;;;4888359;29;20201;-77
2021/12/09 05:49:43;;;;;;;7.82;2.13;;;4.10;99.90;;;;;;4888768;29;20047;-77
2021/12/09 05:52:09;;;;;;;8.40;2.20;;;4.10;99.90;;;;;;4887304;29;20200;-77
2021/12/09 05:54:35;;;;;;;7.68;2.33;;;4.10;99.90;;;;;;4888825;29;20044;-76
2021/12/09 05:57:02;;;;;;;6.68;2.28;;;4.10;99.90;;;;;;4887811;29;20134;-77
2021/12/09 05:59:28;;;;;;;12.52;2.55;;;4.10;99.90;;;;;;4884663;29;20208;-76
2021/12/09 06:01:54;;;;;;;6.03;2.65;;;4.10;99.90;;;;;;4885860;29;20044;-77
2021/12/09 06:04:21;;;;;;;9.45;2.30;;;4.00;99.90;;;;;;4887598;29;20037;-77
2021/12/09 06:06:48;;;;;;;7.13;2.00;;;4.10;99.90;;;;;;4888774;29;20033;-77
2021/12/09 06:09:14;;;;;;;10.73;2.63;;;4.10;99.90;;;;;;4888113;29;20051;-78
2021/12/09 06:11:43;;;;;;;9.23;2.67;;;4.00;99.90;;;;;;4902481;29;20017;-77
2021/12/09 06:14:09;;;;;;;7.50;2.08;;;4.00;99.90;;;;;;4887035;29;20129;-78
2021/12/09 06:16:35;;;;;;;7.50;2.00;;;4.00;99.90;;;;;;4887957;29;20269;-78
2021/12/09 06:19:02;;;;;;;7.38;2.15;;;4.00;99.90;;;;;;4902228;29;20049;-77
2021/12/09 06:21:29;;;;;;;8.38;2.17;;;4.00;99.90;;;;;;4884632;29;20045;-78
2021/12/09 06:23:56;;;;;;;8.15;2.05;;;3.90;99.90;;;;;;4886401;29;20076;-77
2021/12/09 06:26:22;;;;;;;5.95;2.08;;;3.90;99.90;;;;;;4893383;29;20100;-78
2021/12/09 06:28:48;;;;;;;9.95;1.98;;;3.90;99.90;;;;;;4887473;29;20215;-78
2021/12/09 06:31:14;;;;;;;7.75;2.60;;;3.90;99.90;;;;;;4887276;29;20089;-80
2021/12/09 06:33:40;;;;;;;7.13;2.33;;;3.90;99.90;;;;;;4888498;29;20025;-77
2021/12/09 06:36:06;;;;;;;8.07;2.40;;;3.90;99.90;;;;;;4899015;29;20047;-77
2021/12/09 06:38:32;;;;;;;7.57;2.00;;;3.80;99.90;;;;;;4916972;29;20076;-77
2021/12/09 06:40:59;;;;;;;7.65;2.85;;;3.80;99.90;;;;;;4919637;29;20029;-76
2021/12/09 06:43:26;;;;;;;7.40;2.10;;;3.80;99.90;;;;;;4901150;29;20158;-77
2021/12/09 06:45:54;;;;;;;6.80;2.40;;;3.80;99.90;;;;;;4898613;29;20044;-78
2021/12/09 06:48:20;;;;;;;8.88;2.20;;;3.80;99.90;;;;;;4883407;29;20029;-79
2021/12/09 06:50:46;;;;;;;9.05;2.50;;;3.80;99.90;;;;;;4901357;29;20077;-78
2021/12/09 06:53:15;;;;;;;9.98;2.70;;;3.90;99.90;;;;;;4899648;29;20231;-79
2021/12/09 06:55:43;;;;;;;6.03;2.30;;;3.90;99.90;;;;;;4888207;29;20041;-79
2021/12/09 06:58:09;;;;;;;9.43;3.03;;;3.90;99.90;;;;;;4892097;29;20033;-78
2021/12/09 07:00:40;;;;;;;10.93;2.33;;;3.80;99.90;;;;;;4868865;29;20047;-78
2021/12/09 07:03:06;;;;;;;5.22;2.30;;;3.90;99.90;;;;;;4876983;29;20048;-78
2021/12/09 07:05:32;;;;;;;8.98;2.83;;;4.00;99.90;;;;;;4893108;29;20056;-77
2021/12/09 07:07:57;;;;;;;7.65;2.30;;;4.00;99.90;;;;;;4906970;29;20020;-80
2021/12/09 07:10:25;;;;;;;8.23;2.38;;;4.00;99.90;;;;;;4895074;29;20215;-79
2021/12/09 07:12:51;;;;;;;5.97;2.05;;;4.00;99.90;;;;;;4882566;29;20045;-76
2021/12/09 07:15:17;;;;;;;6.25;2.30;;;4.00;99.90;;;;;;4886657;29;20044;-78
2021/12/09 07:17:43;;;;;;;7.45;2.50;;;4.00;99.90;;;;;;4891600;29;20057;-78
2021/12/09 07:20:13;;;;;;;8.13;2.60;;;4.10;99.90;;;;;;4907533;29;20041;-77
2021/12/09 07:22:39;;;;;;;6.55;2.20;;;4.10;99.90;;;;;;4909750;29;20033;-78
2021/12/09 07:25:06;;;;;;;9.00;2.10;;;4.10;99.90;;;;;;4895491;29;20111;-78
2021/12/09 07:27:32;;;;;;;6.95;2.40;;;4.10;99.90;;;;;;4890757;29;20149;-77
2021/12/09 07:29:57;;;;;;;6.22;2.38;;;4.10;99.90;;;;;;4889825;29;20021;-78
2021/12/09 07:32:23;;;;;;;8.32;2.10;;;4.20;99.90;;;;;;4888762;29;20056;-77
2021/12/09 07:34:49;;;;;;;7.05;2.28;;;4.30;99.90;;;;;;4891046;29;20033;-77
2021/12/09 07:37:15;;;;;;;5.28;2.17;;;4.20;99.90;;;;;;4897968;29;20203;-78
2021/12/09 07:39:41;;;;;;;12.25;2.97;;;4.20;99.90;;;;;;4891137;29;20036;-78
2021/12/09 07:42:08;;;;;;;8.70;3.03;;;4.20;99.90;;;;;;4905481;29;20032;-79
2021/12/09 07:44:34;;;;;;;7.40;2.75;;;4.30;99.90;;;;;;4890516;29;20040;-78
2021/12/09 07:47:00;;;;;;;7.53;2.90;;;4.30;99.90;;;;;;4905159;29;20033;-78
2021/12/09 07:49:27;;;;;;;9.25;3.08;;;4.30;99.90;;;;;;4890612;29;20028;-78
2021/12/09 07:51:53;;;;;;;8.98;3.05;;;4.30;99.90;;;;;;4889421;29;20068;-77
2021/12/09 07:54:20;;;;;;;9.10;2.72;;;4.30;99.90;;;;;;4888901;29;20139;-78
2021/12/09 07:56:46;;;;;;;6.68;2.55;;;4.50;99.90;;;;;;4904778;29;20025;-77
2021/12/09 07:59:12;;;;;;;7.38;2.30;;;4.40;99.90;;;;;;4890424;29;20052;-77
2021/12/09 08:01:39;;;;;;;6.85;2.38;;;4.50;99.90;;;;;;4890017;29;20077;-78
2021/12/09 08:04:07;;;;;;;7.70;2.75;;;4.50;99.90;;;;;;4904100;29;20045;-78
2021/12/09 08:06:34;;;;;;;10.05;2.50;;;4.60;99.90;;;;;;4899087;29;20044;-78
2021/12/09 08:09:00;;;;;;;7.05;2.55;;;4.50;99.90;;;;;;4908904;29;20068;-78
2021/12/09 08:11:26;;;;;;;8.95;2.50;;;4.50;99.90;;;;;;4898462;29;20040;-80
2021/12/09 08:13:52;;;;;;;7.95;2.50;;;4.50;99.90;;;;;;4902682;29;20028;-79
2021/12/09 08:16:18;;;;;;;5.80;2.67;;;4.50;99.90;;;;;;4888408;29;20040;-78
2021/12/09 08:18:54;;;;;;;7.22;2.55;;;4.60;99.90;;;;;;4890416;29;20073;-79
2021/12/09 08:21:21;;;;;;;5.53;2.33;;;4.60;99.90;;;;;;4888931;29;20040;-79
2021/12/09 08:23:47;;;;;;;6.72;2.20;;;4.60;99.90;;;;;;4888999;29;20037;-77
2021/12/09 08:26:13;;;;;;;7.35;2.40;;;4.60;99.90;;;;;;4890233;29;20043;-78
2021/12/09 08:28:39;;;;;;;7.43;2.38;;;4.70;99.90;;;;;;4895188;29;20046;-78
2021/12/09 08:31:05;;;;;;;6.38;2.50;;;4.70;99.90;;;;;;4892631;29;20134;-77
2021/12/09 08:33:31;;;;;;;5.70;2.40;;;4.70;99.90;;;;;;4901471;29;20277;-80
2021/12/09 08:35:57;;;;;;;6.95;2.83;;;4.80;99.90;;;;;;4903891;29;20033;-78
2021/12/09 08:38:24;;;;;;;7.68;3.08;;;4.80;99.90;;;;;;4889642;29;20077;-78
2021/12/09 08:40:51;;;;;;;7.60;3.53;;;4.90;99.90;;;;;;4889814;29;20033;-78
2021/12/09 08:43:19;;;;;;;12.85;6.88;;;4.90;99.90;;;;;;4889543;29;20248;-77
2021/12/09 08:45:45;;;;;;;11.33;3.87;;;4.80;99.90;;;;;;4898847;29;20451;-78
2021/12/09 08:48:12;;;;;;;7.13;3.38;;;4.90;99.90;;;;;;4879994;29;20052;-78
2021/12/09 08:50:39;;;;;;;12.45;6.65;;;5.00;99.90;;;;;;4901037;29;20103;-79
2021/12/09 08:53:12;;;;;;;11.35;5.05;;;5.00;99.90;;;;;;4904137;29;20099;-77
2021/12/09 08:55:39;;;;;;;11.70;3.75;;;5.00;99.90;;;;;;4889341;29;20037;-78
2021/12/09 08:58:05;;;;;;;5.70;2.85;;;5.00;99.90;;;;;;4886390;29;20059;-78
2021/12/09 09:00:33;;;;;;;9.82;4.18;;;5.00;99.90;;;;;;4878441;29;20040;-78
2021/12/09 09:02:59;;;;;;;10.77;3.55;;;5.00;99.90;;;;;;4884084;29;20070;-78
2021/12/09 09:05:27;;;;;;;11.13;5.75;;;5.10;99.90;;;;;;4896257;29;20030;-78
2021/12/09 09:07:52;;;;;;;8.32;2.88;;;5.10;99.90;;;;;;4888559;29;20059;-79
2021/12/09 09:10:24;;;;;;;7.15;3.38;;;5.20;99.90;;;;;;4888768;29;20124;-78
2021/12/09 09:13:08;;;;;;;15.63;7.90;;;5.20;99.90;;;;;;4888656;29;20044;-78
2021/12/09 09:15:36;;;;;;;28.77;13.05;;;5.20;99.90;;;;;;4888523;29;20049;-79
2021/12/09 09:18:03;;;;;;;20.25;9.23;;;5.30;99.90;;;;;;4887811;29;20036;-78
2021/12/09 09:20:32;;;;;;;11.82;5.55;;;5.30;99.90;;;;;;4888823;29;20045;-78
2021/12/09 09:22:58;;;;;;;33.30;12.70;;;5.30;99.90;;;;;;4890297;29;20041;-78
2021/12/09 09:25:29;;;;;;;17.40;8.07;;;5.40;99.90;;;;;;4896343;29;20021;-78
2021/12/09 09:27:58;;;;;;;7.65;4.25;;;5.50;99.90;;;;;;4878375;29;20037;-78
2021/12/09 09:30:26;;;;;;;;;;;5.50;99.90;;;;;;4875913;29;20060;-78
2021/12/09 09:32:53;;;;;;;11.90;6.35;;;5.60;99.90;;;;;;4887456;29;20179;-79
2021/12/09 09:35:19;;;;;;;16.42;8.27;;;5.60;99.90;;;;;;4902700;29;20100;-78
2021/12/09 09:37:46;;;;;;;7.60;3.80;;;5.70;99.90;;;;;;4903939;29;20025;-77
2021/12/09 09:40:15;;;;;;;6.43;3.10;;;5.70;99.90;;;;;;4874379;29;20025;-78
2021/12/09 09:45:12;;;;;;;16.50;5.60;;;5.80;99.90;;;;;;4869596;29;20037;-78
2021/12/09 09:47:38;;;;;;;7.07;3.00;;;5.70;99.90;;;;;;4869852;29;20097;-79
2021/12/09 09:50:07;;;;;;;5.43;3.10;;;5.70;99.90;;;;;;4883397;29;20041;-79
2021/12/09 09:52:34;;;;;;;25.58;12.75;;;5.80;99.90;;;;;;4871147;29;20040;-78
2021/12/09 09:55:02;;;;;;;8.90;4.00;;;5.70;99.90;;;;;;4900561;29;20029;-78
2021/12/09 09:57:28;;;;;;;10.43;3.70;;;5.70;99.90;;;;;;4880454;29;20168;-78
2021/12/09 09:59:54;;;;;;;7.13;3.17;;;5.80;99.90;;;;;;4883340;29;20025;-80
2021/12/09 10:02:20;;;;;;;8.25;3.00;;;5.80;99.90;;;;;;4885802;29;20052;-78
2021/12/09 10:04:48;;;;;;;7.50;2.90;;;5.70;99.90;;;;;;4888372;29;20037;-76
2021/12/09 10:07:24;;;;;;;7.07;2.80;;;5.70;99.90;;;;;;4897147;29;20033;-79
2021/12/09 10:09:51;;;;;;;7.85;3.42;;;5.80;99.90;;;;;;4892809;29;20029;-78
2021/12/09 10:12:17;;;;;;;8.27;3.55;;;5.90;99.90;;;;;;4891693;29;20085;-80
2021/12/09 10:14:51;;;;;;;11.07;3.92;;;5.90;99.90;;;;;;4893677;29;20033;-79
2021/12/09 10:17:27;;;;;;;7.63;2.90;;;5.90;99.90;;;;;;4882640;29;20060;-77
2021/12/09 10:19:55;;;;;;;9.00;3.55;;;6.00;99.90;;;;;;4911639;29;20120;-78
2021/12/09 10:22:29;;;;;;;9.88;3.08;;;6.00;99.90;;;;;;4886818;29;20041;-79
2021/12/09 10:24:57;;;;;;;7.53;3.00;;;6.10;99.90;;;;;;4902794;29;20060;-80
2021/12/09 10:27:29;;;;;;;6.28;2.78;;;6.20;99.90;;;;;;4882675;29;20043;-79
2021/12/09 10:30:14;;;;;;;9.55;3.75;;;6.30;99.90;;;;;;4888042;29;20036;-79
2021/12/09 10:32:41;;;;;;;7.15;3.35;;;6.50;99.90;;;;;;4898762;29;20097;-78
2021/12/09 10:35:10;;;;;;;10.88;5.15;;;6.30;99.90;;;;;;4869728;29;20040;-77
2021/12/09 10:37:38;;;;;;;8.90;3.15;;;6.30;99.90;;;;;;4915309;29;20020;-77
2021/12/09 10:40:14;;;;;;;13.95;5.32;;;6.20;99.90;;;;;;4890674;29;20060;-78
2021/12/09 10:42:49;;;;;;;8.93;3.03;;;6.20;99.90;;;;;;4887293;29;20114;-78
2021/12/09 10:45:20;;;;;;;8.95;3.40;;;6.20;99.90;;;;;;4886765;29;20036;-79
2021/12/09 10:48:06;;;;;;;8.90;2.63;;;6.20;99.90;;;;;;4885639;29;20221;-78
2021/12/09 10:50:46;;;;;;;6.50;2.72;;;6.20;99.90;;;;;;4876254;29;20024;-79
2021/12/09 10:55:49;;;;;;;11.73;3.90;;;6.20;99.90;;;;;;4883675;29;20043;-77
2021/12/09 10:58:18;;;;;;;16.63;5.53;;;6.30;99.90;;;;;;4888939;29;20021;-78
2021/12/09 11:00:58;;;;;;;24.00;7.60;;;6.40;99.90;;;;;;4877989;29;20243;-77
2021/12/09 11:03:37;;;;;;;6.28;2.72;;;6.50;99.90;;;;;;4890755;29;20043;-79
2021/12/09 11:06:07;;;;;;;9.63;3.63;;;6.50;99.90;;;;;;4904644;29;20033;-79
2021/12/09 11:08:45;;;;;;;8.45;3.28;;;6.60;99.90;;;;;;4890948;29;20227;-77
2021/12/09 11:11:30;;;;;;;11.88;3.30;;;6.80;99.90;;;;;;4891533;29;20041;-78
2021/12/09 11:14:12;;;;;;;23.10;6.25;;;7.10;99.90;;;;;;4886051;29;20036;-78
2021/12/09 11:16:41;;;;;;;8.77;2.38;;;7.30;99.90;;;;;;4884219;29;20041;-80
2021/12/09 11:19:17;;;;;;;11.80;3.90;;;7.20;99.90;;;;;;4891096;29;20041;-80
2021/12/09 11:21:55;;;;;;;7.70;2.72;;;7.20;99.90;;;;;;4890249;29;20322;-79
2021/12/09 11:24:22;;;;;;;9.82;2.95;;;7.30;99.90;;;;;;4891383;29;20037;-77
2021/12/09 11:26:55;;;;;;;7.80;2.78;;;7.10;99.90;;;;;;4890357;29;20037;-78
2021/12/09 11:29:23;;;;;;;5.57;1.80;;;7.00;99.90;;;;;;4891171;29;20044;-77
2021/12/09 11:32:06;;;;;;;4.75;1.90;;;7.10;99.90;;;;;;4888792;29;20064;-79
2021/12/09 11:35:14;;;;;;;6.28;2.30;;;7.10;99.90;;;;;;4890771;29;20063;-78
2021/12/09 11:37:47;;;;;;;5.50;2.05;;;7.20;99.90;;;;;;4884083;29;20033;-78
2021/12/09 11:40:39;;;;;;;7.90;2.90;;;7.20;99.90;;;;;;4890136;29;20055;-79
2021/12/09 11:43:07;;;;;;;6.32;2.30;;;7.20;99.90;;;;;;4889977;29;20212;-80
2021/12/09 11:45:39;;;;;;;7.43;2.20;;;7.10;99.90;;;;;;4890027;29;20033;-79
2021/12/09 11:48:07;;;;;;;5.15;1.85;;;7.10;99.90;;;;;;4889401;29;20033;-80
2021/12/09 11:50:39;;;;;;;6.85;2.50;;;7.00;99.90;;;;;;4889880;29;20299;-80
2021/12/09 11:53:07;;;;;;;8.35;3.30;;;7.00;99.90;;;;;;4884415;29;20223;-79
2021/12/09 11:55:44;;;;;;;;;;;7.00;99.90;;;;;;4890732;29;20033;-77
2021/12/09 11:58:19;;;;;;;11.52;3.08;;;7.30;99.90;;;;;;4886551;29;20064;-78
2021/12/09 12:21:27;;;;;;;13.65;3.75;;;7.80;99.90;;;;;;4900560;29;20036;-78
2021/12/09 12:29:35;;;;;;;12.20;4.20;;;8.00;99.90;;;;;;4881623;29;20039;-79
2021/12/09 12:32:29;;;;;;;22.20;6.78;;;7.90;99.90;;;;;;4885421;29;20087;-79
2021/12/09 12:38:02;;;;;;;28.13;7.63;;;7.10;99.90;;;;;;4888890;29;20044;-77
2021/12/09 12:40:38;;;;;;;10.35;2.53;;;7.10;99.90;;;;;;4889388;29;20053;-80
2021/12/09 12:43:16;;;;;;;43.00;12.88;;;7.20;99.90;;;;;;4888395;29;20115;-79
2021/12/09 12:51:27;;;;;;;5.55;1.95;;;7.80;99.90;;;;;;4903159;29;20212;-78
2021/12/09 12:54:18;;;;;;;9.90;2.92;;;7.90;99.90;;;;;;4879498;29;20055;-78
2021/12/09 12:56:56;;;;;;;7.20;1.80;;;8.30;99.90;;;;;;4882688;29;20033;-78
2021/12/09 12:59:28;;;;;;;6.68;1.92;;;8.40;99.90;;;;;;4900584;29;20349;-79
2021/12/09 13:02:07;;;;;;;8.43;1.88;;;8.60;99.90;;;;;;4877185;29;20072;-79
2021/12/09 13:05:01;;;;;;;9.77;3.05;;;8.70;99.90;;;;;;4883631;29;20033;-79
2021/12/09 13:13:51;;;;;;;7.97;2.10;;;9.00;99.90;;;;;;4869071;29;20034;-77
2021/12/09 13:21:39;;;;;;;11.23;3.47;;;8.10;99.90;;;;;;4883485;29;20032;-77
2021/12/09 13:25:02;;;;;;;7.30;3.60;;;7.90;99.90;;;;;;4887677;29;20088;-78
2021/12/09 13:28:09;;;;;;;8.85;3.55;;;7.60;99.90;;;;;;4886681;29;20165;-77
2021/12/09 13:33:21;;;;;;;12.57;4.20;;;7.10;99.90;;;;;;4870665;29;20115;-78
2021/12/09 13:55:30;;;;;;;8.13;2.65;;;7.70;99.90;;;;;;4892439;29;20037;-77
2021/12/09 13:58:07;;;;;;;9.05;3.00;;;7.60;99.90;;;;;;4889536;29;20025;-77
2021/12/09 14:00:57;;;;;;;7.07;2.40;;;7.70;99.90;;;;;;4902500;29;20036;-78
2021/12/09 14:03:26;;;;;;;7.82;2.53;;;7.50;99.90;;;;;;4902744;29;20327;-77
2021/12/09 14:06:10;;;;;;;9.80;3.05;;;7.50;99.90;;;;;;4886681;29;20061;-79
2021/12/09 14:08:43;;;;;;;10.38;2.60;;;7.40;99.90;;;;;;4886707;29;20044;-81
2021/12/09 14:11:26;;;;;;;9.00;2.45;;;7.30;99.90;;;;;;4902932;29;20036;-80
2021/12/09 14:14:11;;;;;;;9.25;2.53;;;7.30;99.90;;;;;;4885879;29;20033;-78
2021/12/09 14:17:01;;;;;;;5.82;2.20;;;7.50;99.90;;;;;;4887199;29;20331;-77
2021/12/09 14:21:56;;;;;;;9.32;2.40;;;7.20;99.90;;;;;;4887762;29;20479;-77
2021/12/09 14:24:25;;;;;;;7.97;2.97;;;7.10;99.90;;;;;;4888691;29;20207;-78